sensor_id;sensor_type;location;lat;lon;timestamp;P1;durP1;ratioP1;P2;durP2;ratioP2
44165;SDS011;30476;53.468;9.826;2023-05-21T00:00:58;3.77;;;2.27;;
44165;SDS011;30476;53.468;9.826;2023-05-21T00:03:25;3.67;;;3.00;;
44165;SDS011;30476;53.468;9.826;2023-05-21T00:05:53;3.10;;;2.13;;
44165;SDS011;30476;53.468;9.826;2023-05-21T00:08:19;3.97;;;2.97;;
44165;SDS011;30476;53.468;9.826;2023-05-21T00:10:45;3.33;;;2.23;;
44165;SDS011;30476;53.468;9.826;2023-05-21T00:13:11;3.13;;;2.83;;
44165;SDS011;30476;53.468;9.826;2023-05-21T00:15:37;2.20;;;2.00;;
44165;SDS011;30476;53.468;9.826;2023-05-21T00:18:03;3.53;;;2.00;;
44165;SDS011;30476;53.468;9.826;2023-05-21T00:20:29;3.37;;;2.53;;
44165;SDS011;30476;53.468;9.826;2023-05-21T00:22:56;4.03;;;2.30;;
44165;SDS011;30476;53.468;9.826;2023-05-21T00:25:29;3.07;;;2.00;;
44165;SDS011;30476;53.468;9.826;2023-05-21T00:27:55;4.53;;;2.00;;
44165;SDS011;30476;53.468;9.826;2023-05-21T00:30:21;2.77;;;2.57;;
44165;SDS011;30476;53.468;9.826;2023-05-21T00:32:47;6.43;;;2.40;;
44165;SDS011;30476;53.468;9.826;2023-05-21T00:35:13;3.73;;;2.00;;
44165;SDS011;30476;53.468;9.826;2023-05-21T00:37:39;2.60;;;2.37;;
44165;SDS011;30476;53.468;9.826;2023-05-21T00:40:05;4.23;;;1.93;;
44165;SDS011;30476;53.468;9.826;2023-05-21T00:42:33;2.53;;;2.17;;
44165;SDS011;30476;53.468;9.826;2023-05-21T00:45:04;2.40;;;2.23;;
44165;SDS011;30476;53.468;9.826;2023-05-21T00:47:31;2.30;;;2.00;;
44165;SDS011;30476;53.468;9.826;2023-05-21T00:49:57;3.70;;;2.10;;
44165;SDS011;30476;53.468;9.826;2023-05-21T00:52:23;2.50;;;2.10;;
44165;SDS011;30476;53.468;9.826;2023-05-21T00:54:51;4.73;;;1.90;;
44165;SDS011;30476;53.468;9.826;2023-05-21T00:57:17;3.37;;;2.30;;
44165;SDS011;30476;53.468;9.826;2023-05-21T00:59:51;3.90;;;2.10;;
44165;SDS011;30476;53.468;9.826;2023-05-21T01:02:17;5.67;;;2.50;;
44165;SDS011;30476;53.468;9.826;2023-05-21T01:04:43;3.17;;;2.00;;
44165;SDS011;30476;53.468;9.826;2023-05-21T01:07:09;3.10;;;2.03;;
44165;SDS011;30476;53.468;9.826;2023-05-21T01:09:36;3.17;;;2.50;;
44165;SDS011;30476;53.468;9.826;2023-05-21T01:12:06;2.00;;;1.80;;
44165;SDS011;30476;53.468;9.826;2023-05-21T01:14:33;4.93;;;2.57;;
44165;SDS011;30476;53.468;9.826;2023-05-21T01:17:02;3.03;;;2.07;;
44165;SDS011;30476;53.468;9.826;2023-05-21T01:19:29;3.73;;;1.90;;
44165;SDS011;30476;53.468;9.826;2023-05-21T01:22:02;3.67;;;1.97;;
44165;SDS011;30476;53.468;9.826;2023-05-21T01:24:29;4.20;;;2.27;;
44165;SDS011;30476;53.468;9.826;2023-05-21T01:26:55;4.80;;;2.20;;
44165;SDS011;30476;53.468;9.826;2023-05-21T01:29:23;3.10;;;2.80;;
44165;SDS011;30476;53.468;9.826;2023-05-21T01:34:44;3.03;;;1.83;;
44165;SDS011;30476;53.468;9.826;2023-05-21T01:37:36;7.23;;;2.10;;
44165;SDS011;30476;53.468;9.826;2023-05-21T01:40:25;4.40;;;2.63;;
44165;SDS011;30476;53.468;9.826;2023-05-21T01:42:58;3.20;;;1.50;;
44165;SDS011;30476;53.468;9.826;2023-05-21T01:45:25;3.73;;;2.70;;
44165;SDS011;30476;53.468;9.826;2023-05-21T01:47:53;2.17;;;1.90;;
44165;SDS011;30476;53.468;9.826;2023-05-21T01:50:21;3.27;;;2.27;;
44165;SDS011;30476;53.468;9.826;2023-05-21T01:52:52;3.20;;;2.13;;
44165;SDS011;30476;53.468;9.826;2023-05-21T01:55:21;5.13;;;1.73;;
44165;SDS011;30476;53.468;9.826;2023-05-21T01:57:53;2.43;;;2.23;;
44165;SDS011;30476;53.468;9.826;2023-05-21T02:00:20;4.17;;;2.37;;
44165;SDS011;30476;53.468;9.826;2023-05-21T02:02:47;2.40;;;2.20;;
44165;SDS011;30476;53.468;9.826;2023-05-21T02:05:13;2.23;;;1.80;;
44165;SDS011;30476;53.468;9.826;2023-05-21T02:07:40;2.77;;;2.00;;
44165;SDS011;30476;53.468;9.826;2023-05-21T02:10:06;4.30;;;1.97;;
44165;SDS011;30476;53.468;9.826;2023-05-21T02:12:32;2.53;;;2.20;;
44165;SDS011;30476;53.468;9.826;2023-05-21T02:14:57;4.00;;;2.17;;
44165;SDS011;30476;53.468;9.826;2023-05-21T02:17:23;2.93;;;2.63;;
44165;SDS011;30476;53.468;9.826;2023-05-21T02:19:50;5.97;;;2.50;;
44165;SDS011;30476;53.468;9.826;2023-05-21T02:22:16;2.40;;;2.20;;
44165;SDS011;30476;53.468;9.826;2023-05-21T02:24:42;5.40;;;2.30;;
44165;SDS011;30476;53.468;9.826;2023-05-21T02:27:07;3.43;;;2.63;;
44165;SDS011;30476;53.468;9.826;2023-05-21T02:29:38;3.47;;;2.20;;
44165;SDS011;30476;53.468;9.826;2023-05-21T02:32:04;3.10;;;2.23;;
44165;SDS011;30476;53.468;9.826;2023-05-21T02:34:30;2.90;;;2.17;;
44165;SDS011;30476;53.468;9.826;2023-05-21T02:36:56;2.40;;;2.20;;
44165;SDS011;30476;53.468;9.826;2023-05-21T02:39:23;4.17;;;2.40;;
44165;SDS011;30476;53.468;9.826;2023-05-21T02:41:48;3.47;;;3.27;;
44165;SDS011;30476;53.468;9.826;2023-05-21T02:44:14;5.17;;;1.80;;
44165;SDS011;30476;53.468;9.826;2023-05-21T02:46:40;2.60;;;1.93;;
44165;SDS011;30476;53.468;9.826;2023-05-21T02:49:06;5.93;;;2.77;;
44165;SDS011;30476;53.468;9.826;2023-05-21T02:51:32;4.70;;;2.23;;
44165;SDS011;30476;53.468;9.826;2023-05-21T02:53:58;2.80;;;2.17;;
44165;SDS011;30476;53.468;9.826;2023-05-21T02:56:24;4.07;;;1.80;;
44165;SDS011;30476;53.468;9.826;2023-05-21T02:58:50;4.00;;;2.30;;
44165;SDS011;30476;53.468;9.826;2023-05-21T03:01:16;4.27;;;2.30;;
44165;SDS011;30476;53.468;9.826;2023-05-21T03:03:42;5.93;;;2.60;;
44165;SDS011;30476;53.468;9.826;2023-05-21T03:06:08;3.57;;;2.20;;
44165;SDS011;30476;53.468;9.826;2023-05-21T03:08:34;4.67;;;2.40;;
44165;SDS011;30476;53.468;9.826;2023-05-21T03:11:01;5.20;;;2.30;;
44165;SDS011;30476;53.468;9.826;2023-05-21T03:13:27;3.03;;;2.20;;
44165;SDS011;30476;53.468;9.826;2023-05-21T03:15:52;2.73;;;2.57;;
44165;SDS011;30476;53.468;9.826;2023-05-21T03:18:21;3.60;;;2.37;;
44165;SDS011;30476;53.468;9.826;2023-05-21T03:20:47;5.73;;;2.27;;
44165;SDS011;30476;53.468;9.826;2023-05-21T03:23:13;2.53;;;2.33;;
44165;SDS011;30476;53.468;9.826;2023-05-21T03:25:40;5.20;;;2.80;;
44165;SDS011;30476;53.468;9.826;2023-05-21T03:28:06;3.13;;;2.40;;
44165;SDS011;30476;53.468;9.826;2023-05-21T03:30:34;3.73;;;2.10;;
44165;SDS011;30476;53.468;9.826;2023-05-21T03:33:01;5.87;;;2.50;;
44165;SDS011;30476;53.468;9.826;2023-05-21T03:35:27;3.97;;;2.67;;
44165;SDS011;30476;53.468;9.826;2023-05-21T03:37:53;3.43;;;2.43;;
44165;SDS011;30476;53.468;9.826;2023-05-21T03:40:19;4.50;;;2.40;;
44165;SDS011;30476;53.468;9.826;2023-05-21T03:42:46;3.03;;;2.50;;
44165;SDS011;30476;53.468;9.826;2023-05-21T03:45:12;4.30;;;2.40;;
44165;SDS011;30476;53.468;9.826;2023-05-21T03:47:38;4.03;;;3.20;;
44165;SDS011;30476;53.468;9.826;2023-05-21T03:50:03;4.20;;;2.80;;
44165;SDS011;30476;53.468;9.826;2023-05-21T03:52:30;3.23;;;2.47;;
44165;SDS011;30476;53.468;9.826;2023-05-21T03:54:56;3.40;;;2.50;;
44165;SDS011;30476;53.468;9.826;2023-05-21T03:57:21;2.53;;;2.33;;
44165;SDS011;30476;53.468;9.826;2023-05-21T03:59:47;4.07;;;2.50;;
44165;SDS011;30476;53.468;9.826;2023-05-21T04:02:13;3.00;;;2.30;;
44165;SDS011;30476;53.468;9.826;2023-05-21T04:04:39;3.70;;;2.60;;
44165;SDS011;30476;53.468;9.826;2023-05-21T04:07:04;4.27;;;2.37;;
44165;SDS011;30476;53.468;9.826;2023-05-21T04:09:34;3.20;;;2.20;;
44165;SDS011;30476;53.468;9.826;2023-05-21T04:12:00;5.70;;;2.90;;
44165;SDS011;30476;53.468;9.826;2023-05-21T04:14:27;2.47;;;2.30;;
44165;SDS011;30476;53.468;9.826;2023-05-21T04:16:52;5.10;;;2.10;;
44165;SDS011;30476;53.468;9.826;2023-05-21T04:19:18;3.27;;;3.07;;
44165;SDS011;30476;53.468;9.826;2023-05-21T04:21:44;5.10;;;2.37;;
44165;SDS011;30476;53.468;9.826;2023-05-21T04:24:10;3.27;;;2.17;;
44165;SDS011;30476;53.468;9.826;2023-05-21T04:26:36;2.57;;;2.33;;
44165;SDS011;30476;53.468;9.826;2023-05-21T04:29:02;3.83;;;2.23;;
44165;SDS011;30476;53.468;9.826;2023-05-21T04:31:31;3.83;;;2.73;;
44165;SDS011;30476;53.468;9.826;2023-05-21T04:33:57;2.87;;;2.63;;
44165;SDS011;30476;53.468;9.826;2023-05-21T04:36:23;5.53;;;2.70;;
44165;SDS011;30476;53.468;9.826;2023-05-21T04:38:49;2.53;;;2.33;;
44165;SDS011;30476;53.468;9.826;2023-05-21T04:41:15;5.80;;;2.47;;
44165;SDS011;30476;53.468;9.826;2023-05-21T04:43:43;3.90;;;2.80;;
44165;SDS011;30476;53.468;9.826;2023-05-21T04:46:08;2.73;;;2.53;;
44165;SDS011;30476;53.468;9.826;2023-05-21T04:48:34;3.83;;;2.40;;
44165;SDS011;30476;53.468;9.826;2023-05-21T04:51:00;3.60;;;3.00;;
44165;SDS011;30476;53.468;9.826;2023-05-21T04:53:29;6.10;;;3.17;;
44165;SDS011;30476;53.468;9.826;2023-05-21T04:55:55;2.70;;;2.50;;
44165;SDS011;30476;53.468;9.826;2023-05-21T04:58:23;3.53;;;3.10;;
44165;SDS011;30476;53.468;9.826;2023-05-21T05:00:50;3.90;;;2.83;;
44165;SDS011;30476;53.468;9.826;2023-05-21T05:03:17;3.30;;;3.07;;
44165;SDS011;30476;53.468;9.826;2023-05-21T05:05:43;6.33;;;3.20;;
44165;SDS011;30476;53.468;9.826;2023-05-21T05:08:09;3.93;;;3.20;;
44165;SDS011;30476;53.468;9.826;2023-05-21T05:10:35;3.43;;;3.13;;
44165;SDS011;30476;53.468;9.826;2023-05-21T05:13:01;5.50;;;3.47;;
44165;SDS011;30476;53.468;9.826;2023-05-21T05:15:27;6.93;;;3.20;;
44165;SDS011;30476;53.468;9.826;2023-05-21T05:17:53;5.10;;;3.33;;
44165;SDS011;30476;53.468;9.826;2023-05-21T05:20:18;3.57;;;3.23;;
44165;SDS011;30476;53.468;9.826;2023-05-21T05:22:44;3.20;;;2.90;;
44165;SDS011;30476;53.468;9.826;2023-05-21T05:25:10;7.13;;;3.87;;
44165;SDS011;30476;53.468;9.826;2023-05-21T05:27:36;4.10;;;3.40;;
44165;SDS011;30476;53.468;9.826;2023-05-21T05:30:02;3.80;;;3.37;;
44165;SDS011;30476;53.468;9.826;2023-05-21T05:32:28;6.53;;;3.87;;
44165;SDS011;30476;53.468;9.826;2023-05-21T05:34:53;6.80;;;3.70;;
44165;SDS011;30476;53.468;9.826;2023-05-21T05:37:19;6.13;;;3.70;;
44165;SDS011;30476;53.468;9.826;2023-05-21T05:39:45;6.00;;;4.13;;
44165;SDS011;30476;53.468;9.826;2023-05-21T05:42:11;4.43;;;3.63;;
44165;SDS011;30476;53.468;9.826;2023-05-21T05:44:37;6.47;;;4.33;;
44165;SDS011;30476;53.468;9.826;2023-05-21T05:47:02;5.20;;;3.40;;
44165;SDS011;30476;53.468;9.826;2023-05-21T05:49:33;5.00;;;3.63;;
44165;SDS011;30476;53.468;9.826;2023-05-21T05:51:59;4.93;;;3.77;;
44165;SDS011;30476;53.468;9.826;2023-05-21T05:54:25;5.23;;;4.07;;
44165;SDS011;30476;53.468;9.826;2023-05-21T05:56:51;7.20;;;4.40;;
44165;SDS011;30476;53.468;9.826;2023-05-21T05:59:16;6.17;;;4.33;;
44165;SDS011;30476;53.468;9.826;2023-05-21T06:01:42;5.27;;;3.77;;
44165;SDS011;30476;53.468;9.826;2023-05-21T06:04:08;8.33;;;4.10;;
44165;SDS011;30476;53.468;9.826;2023-05-21T06:06:33;5.60;;;5.03;;
44165;SDS011;30476;53.468;9.826;2023-05-21T06:09:01;5.70;;;4.70;;
44165;SDS011;30476;53.468;9.826;2023-05-21T06:11:27;5.00;;;4.00;;
44165;SDS011;30476;53.468;9.826;2023-05-21T06:13:53;5.13;;;4.47;;
44165;SDS011;30476;53.468;9.826;2023-05-21T06:16:18;6.83;;;4.33;;
44165;SDS011;30476;53.468;9.826;2023-05-21T06:18:44;5.30;;;4.23;;
44165;SDS011;30476;53.468;9.826;2023-05-21T06:21:10;4.77;;;4.33;;
44165;SDS011;30476;53.468;9.826;2023-05-21T06:23:36;5.10;;;4.70;;
44165;SDS011;30476;53.468;9.826;2023-05-21T06:26:02;5.00;;;4.50;;
44165;SDS011;30476;53.468;9.826;2023-05-21T06:28:28;4.63;;;4.33;;
44165;SDS011;30476;53.468;9.826;2023-05-21T06:30:54;5.13;;;4.47;;
44165;SDS011;30476;53.468;9.826;2023-05-21T06:33:20;7.20;;;5.40;;
44165;SDS011;30476;53.468;9.826;2023-05-21T06:35:45;5.50;;;4.60;;
44165;SDS011;30476;53.468;9.826;2023-05-21T06:38:11;7.00;;;4.80;;
44165;SDS011;30476;53.468;9.826;2023-05-21T06:40:37;5.23;;;4.77;;
44165;SDS011;30476;53.468;9.826;2023-05-21T06:43:03;5.80;;;5.13;;
44165;SDS011;30476;53.468;9.826;2023-05-21T06:45:29;6.07;;;5.47;;
44165;SDS011;30476;53.468;9.826;2023-05-21T06:47:55;5.23;;;4.80;;
44165;SDS011;30476;53.468;9.826;2023-05-21T06:50:20;6.37;;;5.20;;
44165;SDS011;30476;53.468;9.826;2023-05-21T06:52:46;5.63;;;4.87;;
44165;SDS011;30476;53.468;9.826;2023-05-21T06:55:12;7.77;;;6.33;;
44165;SDS011;30476;53.468;9.826;2023-05-21T06:57:38;7.60;;;6.90;;
44165;SDS011;30476;53.468;9.826;2023-05-21T07:00:04;7.13;;;6.30;;
44165;SDS011;30476;53.468;9.826;2023-05-21T07:02:30;5.97;;;5.47;;
44165;SDS011;30476;53.468;9.826;2023-05-21T07:04:56;6.17;;;5.60;;
44165;SDS011;30476;53.468;9.826;2023-05-21T07:07:21;6.53;;;5.93;;
44165;SDS011;30476;53.468;9.826;2023-05-21T07:09:47;6.10;;;5.70;;
44165;SDS011;30476;53.468;9.826;2023-05-21T07:12:13;6.10;;;5.50;;
44165;SDS011;30476;53.468;9.826;2023-05-21T07:14:39;6.77;;;6.27;;
44165;SDS011;30476;53.468;9.826;2023-05-21T07:17:04;7.13;;;6.50;;
44165;SDS011;30476;53.468;9.826;2023-05-21T07:19:30;7.13;;;6.43;;
44165;SDS011;30476;53.468;9.826;2023-05-21T07:21:56;8.00;;;6.37;;
44165;SDS011;30476;53.468;9.826;2023-05-21T07:24:22;8.10;;;7.40;;
44165;SDS011;30476;53.468;9.826;2023-05-21T07:26:48;7.67;;;6.33;;
44165;SDS011;30476;53.468;9.826;2023-05-21T07:29:13;8.23;;;7.37;;
44165;SDS011;30476;53.468;9.826;2023-05-21T07:31:39;9.00;;;6.93;;
44165;SDS011;30476;53.468;9.826;2023-05-21T07:34:05;8.03;;;7.43;;
44165;SDS011;30476;53.468;9.826;2023-05-21T07:36:31;8.80;;;7.07;;
44165;SDS011;30476;53.468;9.826;2023-05-21T07:38:57;8.50;;;7.53;;
44165;SDS011;30476;53.468;9.826;2023-05-21T07:41:23;8.93;;;7.73;;
44165;SDS011;30476;53.468;9.826;2023-05-21T07:43:49;8.43;;;7.60;;
44165;SDS011;30476;53.468;9.826;2023-05-21T07:46:15;9.40;;;8.53;;
44165;SDS011;30476;53.468;9.826;2023-05-21T07:48:40;10.63;;;8.10;;
44165;SDS011;30476;53.468;9.826;2023-05-21T07:51:07;8.97;;;8.07;;
44165;SDS011;30476;53.468;9.826;2023-05-21T07:53:33;9.70;;;8.80;;
44165;SDS011;30476;53.468;9.826;2023-05-21T07:55:59;9.57;;;8.70;;
44165;SDS011;30476;53.468;9.826;2023-05-21T07:58:25;9.33;;;8.40;;
44165;SDS011;30476;53.468;9.826;2023-05-21T08:00:51;8.90;;;8.20;;
44165;SDS011;30476;53.468;9.826;2023-05-21T08:03:16;10.87;;;9.00;;
44165;SDS011;30476;53.468;9.826;2023-05-21T08:05:43;9.70;;;8.47;;
44165;SDS011;30476;53.468;9.826;2023-05-21T08:08:13;8.43;;;7.83;;
44165;SDS011;30476;53.468;9.826;2023-05-21T08:10:40;11.47;;;9.27;;
44165;SDS011;30476;53.468;9.826;2023-05-21T08:13:05;8.63;;;7.97;;
44165;SDS011;30476;53.468;9.826;2023-05-21T08:15:31;9.67;;;8.67;;
44165;SDS011;30476;53.468;9.826;2023-05-21T08:17:57;8.70;;;7.90;;
44165;SDS011;30476;53.468;9.826;2023-05-21T08:20:23;9.87;;;9.03;;
44165;SDS011;30476;53.468;9.826;2023-05-21T08:22:50;9.77;;;8.77;;
44165;SDS011;30476;53.468;9.826;2023-05-21T08:25:17;9.70;;;8.67;;
44165;SDS011;30476;53.468;9.826;2023-05-21T08:27:43;8.90;;;8.10;;
44165;SDS011;30476;53.468;9.826;2023-05-21T08:30:09;11.07;;;9.97;;
44165;SDS011;30476;53.468;9.826;2023-05-21T08:32:35;13.13;;;9.80;;
44165;SDS011;30476;53.468;9.826;2023-05-21T08:35:01;10.43;;;9.43;;
44165;SDS011;30476;53.468;9.826;2023-05-21T08:37:27;13.60;;;9.07;;
44165;SDS011;30476;53.468;9.826;2023-05-21T08:39:53;10.60;;;9.63;;
44165;SDS011;30476;53.468;9.826;2023-05-21T08:45:07;11.20;;;10.20;;
44165;SDS011;30476;53.468;9.826;2023-05-21T08:47:35;14.00;;;10.37;;
44165;SDS011;30476;53.468;9.826;2023-05-21T08:50:04;11.87;;;10.87;;
44165;SDS011;30476;53.468;9.826;2023-05-21T08:52:33;10.97;;;9.87;;
44165;SDS011;30476;53.468;9.826;2023-05-21T08:54:59;10.50;;;9.70;;
44165;SDS011;30476;53.468;9.826;2023-05-21T08:57:27;14.27;;;12.00;;
44165;SDS011;30476;53.468;9.826;2023-05-21T08:59:56;12.93;;;11.67;;
44165;SDS011;30476;53.468;9.826;2023-05-21T09:02:22;12.57;;;11.27;;
44165;SDS011;30476;53.468;9.826;2023-05-21T09:04:49;13.00;;;11.50;;
44165;SDS011;30476;53.468;9.826;2023-05-21T09:07:24;12.37;;;10.83;;
44165;SDS011;30476;53.468;9.826;2023-05-21T09:09:55;10.90;;;10.00;;
44165;SDS011;30476;53.468;9.826;2023-05-21T09:12:23;13.90;;;12.53;;
44165;SDS011;30476;53.468;9.826;2023-05-21T09:14:51;14.97;;;12.07;;
44165;SDS011;30476;53.468;9.826;2023-05-21T09:17:17;12.87;;;11.77;;
44165;SDS011;30476;53.468;9.826;2023-05-21T09:22:38;14.10;;;12.23;;
44165;SDS011;30476;53.468;9.826;2023-05-21T09:25:06;12.90;;;11.70;;
44165;SDS011;30476;53.468;9.826;2023-05-21T09:27:33;13.97;;;12.57;;
44165;SDS011;30476;53.468;9.826;2023-05-21T09:30:00;14.07;;;12.60;;
44165;SDS011;30476;53.468;9.826;2023-05-21T09:32:27;14.23;;;12.73;;
44165;SDS011;30476;53.468;9.826;2023-05-21T09:34:53;13.23;;;12.13;;
44165;SDS011;30476;53.468;9.826;2023-05-21T09:37:19;15.43;;;14.00;;
44165;SDS011;30476;53.468;9.826;2023-05-21T09:39:47;14.03;;;12.63;;
44165;SDS011;30476;53.468;9.826;2023-05-21T09:42:13;15.90;;;12.90;;
44165;SDS011;30476;53.468;9.826;2023-05-21T09:44:42;13.57;;;12.27;;
44165;SDS011;30476;53.468;9.826;2023-05-21T09:47:08;14.10;;;12.73;;
44165;SDS011;30476;53.468;9.826;2023-05-21T09:49:35;15.37;;;13.63;;
44165;SDS011;30476;53.468;9.826;2023-05-21T09:52:01;14.80;;;13.50;;
44165;SDS011;30476;53.468;9.826;2023-05-21T09:54:30;14.43;;;13.13;;
44165;SDS011;30476;53.468;9.826;2023-05-21T09:56:59;14.37;;;12.97;;
44165;SDS011;30476;53.468;9.826;2023-05-21T09:59:37;13.97;;;12.67;;
44165;SDS011;30476;53.468;9.826;2023-05-21T10:02:13;15.33;;;13.93;;
44165;SDS011;30476;53.468;9.826;2023-05-21T10:04:46;12.97;;;11.77;;
44165;SDS011;30476;53.468;9.826;2023-05-21T10:07:19;13.73;;;12.50;;
44165;SDS011;30476;53.468;9.826;2023-05-21T10:09:50;13.70;;;12.40;;
44165;SDS011;30476;53.468;9.826;2023-05-21T10:12:20;14.40;;;12.90;;
44165;SDS011;30476;53.468;9.826;2023-05-21T10:14:49;14.43;;;13.20;;
44165;SDS011;30476;53.468;9.826;2023-05-21T10:17:18;14.70;;;13.17;;
44165;SDS011;30476;53.468;9.826;2023-05-21T10:19:45;14.90;;;13.33;;
44165;SDS011;30476;53.468;9.826;2023-05-21T10:22:11;13.53;;;12.40;;
44165;SDS011;30476;53.468;9.826;2023-05-21T10:24:38;18.13;;;13.67;;
44165;SDS011;30476;53.468;9.826;2023-05-21T10:27:06;13.70;;;12.60;;
44165;SDS011;30476;53.468;9.826;2023-05-21T10:29:32;13.07;;;11.87;;
44165;SDS011;30476;53.468;9.826;2023-05-21T10:31:59;14.60;;;13.23;;
44165;SDS011;30476;53.468;9.826;2023-05-21T10:34:25;15.37;;;14.03;;
44165;SDS011;30476;53.468;9.826;2023-05-21T10:36:53;14.87;;;13.33;;
44165;SDS011;30476;53.468;9.826;2023-05-21T10:39:21;15.10;;;13.70;;
44165;SDS011;30476;53.468;9.826;2023-05-21T10:41:59;14.13;;;13.00;;
44165;SDS011;30476;53.468;9.826;2023-05-21T10:44:37;15.20;;;13.80;;
44165;SDS011;30476;53.468;9.826;2023-05-21T10:50:18;13.83;;;12.53;;
44165;SDS011;30476;53.468;9.826;2023-05-21T10:56:12;14.40;;;13.00;;
44165;SDS011;30476;53.468;9.826;2023-05-21T11:01:32;13.20;;;12.07;;
44165;SDS011;30476;53.468;9.826;2023-05-21T11:04:02;13.97;;;12.50;;
44165;SDS011;30476;53.468;9.826;2023-05-21T11:06:28;13.67;;;12.40;;
44165;SDS011;30476;53.468;9.826;2023-05-21T11:08:54;14.20;;;12.87;;
44165;SDS011;30476;53.468;9.826;2023-05-21T11:16:56;15.70;;;12.83;;
44165;SDS011;30476;53.468;9.826;2023-05-21T11:19:41;12.60;;;11.50;;
44165;SDS011;30476;53.468;9.826;2023-05-21T11:24:48;13.73;;;12.33;;
44165;SDS011;30476;53.468;9.826;2023-05-21T11:27:36;13.50;;;12.40;;
44165;SDS011;30476;53.468;9.826;2023-05-21T11:35:35;13.33;;;12.23;;
44165;SDS011;30476;53.468;9.826;2023-05-21T11:38:09;13.57;;;12.33;;
44165;SDS011;30476;53.468;9.826;2023-05-21T11:40:35;12.93;;;11.93;;
44165;SDS011;30476;53.468;9.826;2023-05-21T11:43:01;12.63;;;11.53;;
44165;SDS011;30476;53.468;9.826;2023-05-21T11:45:28;12.80;;;11.80;;
44165;SDS011;30476;53.468;9.826;2023-05-21T11:47:55;13.07;;;11.97;;
44165;SDS011;30476;53.468;9.826;2023-05-21T11:50:21;13.43;;;12.13;;
44165;SDS011;30476;53.468;9.826;2023-05-21T11:52:47;12.93;;;11.97;;
44165;SDS011;30476;53.468;9.826;2023-05-21T11:55:14;13.03;;;12.07;;
44165;SDS011;30476;53.468;9.826;2023-05-21T11:57:43;13.70;;;12.50;;
44165;SDS011;30476;53.468;9.826;2023-05-21T12:00:15;12.77;;;11.73;;
44165;SDS011;30476;53.468;9.826;2023-05-21T12:02:49;13.70;;;12.43;;
44165;SDS011;30476;53.468;9.826;2023-05-21T12:05:16;11.40;;;10.50;;
44165;SDS011;30476;53.468;9.826;2023-05-21T12:07:44;13.17;;;12.07;;
44165;SDS011;30476;53.468;9.826;2023-05-21T12:10:12;12.87;;;11.80;;
44165;SDS011;30476;53.468;9.826;2023-05-21T12:12:38;13.50;;;12.10;;
44165;SDS011;30476;53.468;9.826;2023-05-21T12:15:04;13.30;;;12.30;;
44165;SDS011;30476;53.468;9.826;2023-05-21T12:17:31;13.60;;;12.50;;
44165;SDS011;30476;53.468;9.826;2023-05-21T12:19:57;12.77;;;11.77;;
44165;SDS011;30476;53.468;9.826;2023-05-21T12:22:23;12.57;;;11.57;;
44165;SDS011;30476;53.468;9.826;2023-05-21T12:24:49;13.43;;;12.20;;
44165;SDS011;30476;53.468;9.826;2023-05-21T12:27:15;12.97;;;11.97;;
44165;SDS011;30476;53.468;9.826;2023-05-21T12:29:43;12.20;;;11.20;;
44165;SDS011;30476;53.468;9.826;2023-05-21T12:32:11;13.27;;;12.13;;
44165;SDS011;30476;53.468;9.826;2023-05-21T12:37:05;12.83;;;11.83;;
44165;SDS011;30476;53.468;9.826;2023-05-21T12:39:54;13.83;;;12.73;;
44165;SDS011;30476;53.468;9.826;2023-05-21T12:42:25;12.80;;;11.90;;
44165;SDS011;30476;53.468;9.826;2023-05-21T12:44:52;15.27;;;13.57;;
44165;SDS011;30476;53.468;9.826;2023-05-21T12:47:18;13.00;;;11.83;;
44165;SDS011;30476;53.468;9.826;2023-05-21T12:49:49;14.20;;;13.10;;
44165;SDS011;30476;53.468;9.826;2023-05-21T12:52:19;12.77;;;11.43;;
44165;SDS011;30476;53.468;9.826;2023-05-21T12:54:48;12.50;;;11.60;;
44165;SDS011;30476;53.468;9.826;2023-05-21T12:57:18;12.50;;;11.50;;
44165;SDS011;30476;53.468;9.826;2023-05-21T13:02:22;13.20;;;11.93;;
44165;SDS011;30476;53.468;9.826;2023-05-21T13:05:05;13.50;;;12.50;;
44165;SDS011;30476;53.468;9.826;2023-05-21T13:07:34;12.83;;;11.73;;
44165;SDS011;30476;53.468;9.826;2023-05-21T13:10:01;12.33;;;11.27;;
44165;SDS011;30476;53.468;9.826;2023-05-21T13:12:27;11.63;;;10.63;;
44165;SDS011;30476;53.468;9.826;2023-05-21T13:14:55;14.30;;;13.10;;
44165;SDS011;30476;53.468;9.826;2023-05-21T13:17:22;11.77;;;10.67;;
44165;SDS011;30476;53.468;9.826;2023-05-21T13:20:08;12.20;;;11.30;;
44165;SDS011;30476;53.468;9.826;2023-05-21T13:22:43;13.17;;;11.97;;
44165;SDS011;30476;53.468;9.826;2023-05-21T13:25:12;12.90;;;11.90;;
44165;SDS011;30476;53.468;9.826;2023-05-21T13:27:40;12.10;;;11.10;;
44165;SDS011;30476;53.468;9.826;2023-05-21T13:30:07;12.80;;;11.80;;
44165;SDS011;30476;53.468;9.826;2023-05-21T13:32:34;12.73;;;11.57;;
44165;SDS011;30476;53.468;9.826;2023-05-21T13:35:00;12.50;;;11.37;;
44165;SDS011;30476;53.468;9.826;2023-05-21T13:37:26;12.87;;;11.90;;
44165;SDS011;30476;53.468;9.826;2023-05-21T13:39:52;11.60;;;10.63;;
44165;SDS011;30476;53.468;9.826;2023-05-21T13:42:18;11.97;;;10.93;;
44165;SDS011;30476;53.468;9.826;2023-05-21T13:44:45;12.77;;;11.87;;
44165;SDS011;30476;53.468;9.826;2023-05-21T13:47:12;11.77;;;10.77;;
44165;SDS011;30476;53.468;9.826;2023-05-21T13:49:38;12.50;;;11.27;;
44165;SDS011;30476;53.468;9.826;2023-05-21T13:52:05;12.80;;;11.50;;
44165;SDS011;30476;53.468;9.826;2023-05-21T13:54:32;12.23;;;11.20;;
44165;SDS011;30476;53.468;9.826;2023-05-21T13:56:57;11.63;;;10.73;;
44165;SDS011;30476;53.468;9.826;2023-05-21T13:59:23;11.93;;;10.93;;
44165;SDS011;30476;53.468;9.826;2023-05-21T14:01:49;12.07;;;10.90;;
44165;SDS011;30476;53.468;9.826;2023-05-21T14:04:16;10.70;;;10.00;;
44165;SDS011;30476;53.468;9.826;2023-05-21T14:06:43;11.17;;;10.27;;
44165;SDS011;30476;53.468;9.826;2023-05-21T14:09:09;11.87;;;10.97;;
44165;SDS011;30476;53.468;9.826;2023-05-21T14:11:35;11.00;;;9.93;;
44165;SDS011;30476;53.468;9.826;2023-05-21T14:14:01;12.23;;;11.13;;
44165;SDS011;30476;53.468;9.826;2023-05-21T14:16:27;10.63;;;9.53;;
44165;SDS011;30476;53.468;9.826;2023-05-21T14:18:53;12.03;;;11.03;;
44165;SDS011;30476;53.468;9.826;2023-05-21T14:21:19;10.13;;;9.23;;
44165;SDS011;30476;53.468;9.826;2023-05-21T14:23:45;10.70;;;9.90;;
44165;SDS011;30476;53.468;9.826;2023-05-21T14:26:12;11.43;;;10.53;;
44165;SDS011;30476;53.468;9.826;2023-05-21T14:28:38;9.67;;;8.97;;
44165;SDS011;30476;53.468;9.826;2023-05-21T14:31:04;11.20;;;10.10;;
44165;SDS011;30476;53.468;9.826;2023-05-21T14:33:31;10.17;;;9.47;;
44165;SDS011;30476;53.468;9.826;2023-05-21T14:35:59;10.97;;;9.97;;
44165;SDS011;30476;53.468;9.826;2023-05-21T14:38:26;10.83;;;9.93;;
44165;SDS011;30476;53.468;9.826;2023-05-21T14:40:52;11.23;;;10.43;;
44165;SDS011;30476;53.468;9.826;2023-05-21T14:43:18;10.60;;;9.60;;
44165;SDS011;30476;53.468;9.826;2023-05-21T14:45:44;12.33;;;11.10;;
44165;SDS011;30476;53.468;9.826;2023-05-21T14:48:10;14.70;;;10.33;;
44165;SDS011;30476;53.468;9.826;2023-05-21T14:50:39;10.30;;;9.60;;
44165;SDS011;30476;53.468;9.826;2023-05-21T14:53:08;11.33;;;10.43;;
44165;SDS011;30476;53.468;9.826;2023-05-21T14:55:35;10.33;;;9.53;;
44165;SDS011;30476;53.468;9.826;2023-05-21T14:58:02;10.50;;;9.60;;
44165;SDS011;30476;53.468;9.826;2023-05-21T15:00:29;10.33;;;9.43;;
44165;SDS011;30476;53.468;9.826;2023-05-21T15:02:55;9.90;;;9.20;;
44165;SDS011;30476;53.468;9.826;2023-05-21T15:05:21;9.57;;;8.87;;
44165;SDS011;30476;53.468;9.826;2023-05-21T15:07:47;10.47;;;9.13;;
44165;SDS011;30476;53.468;9.826;2023-05-21T15:10:13;10.70;;;9.80;;
44165;SDS011;30476;53.468;9.826;2023-05-21T15:12:39;9.97;;;9.17;;
44165;SDS011;30476;53.468;9.826;2023-05-21T15:15:05;11.03;;;9.90;;